createdAt,value
2022-10-25T00:01:37.139Z,14.65
2022-10-25T00:04:09.613Z,14.64
2022-10-25T00:06:41.993Z,14.62
2022-10-25T00:09:15.504Z,14.61
2022-10-25T00:11:47.730Z,14.59
2022-10-25T00:14:20.782Z,14.56
2022-10-25T00:16:53.013Z,14.50
2022-10-25T00:19:25.153Z,14.48
2022-10-25T00:22:17.286Z,14.41
2022-10-25T00:24:49.605Z,14.38
2022-10-25T00:27:21.759Z,14.38
2022-10-25T00:29:54.978Z,14.33
2022-10-25T00:32:27.345Z,14.27
2022-10-25T00:34:59.500Z,14.26
2022-10-25T00:37:31.699Z,14.24
2022-10-25T00:40:04.260Z,14.25
2022-10-25T00:42:36.514Z,14.25
2022-10-25T00:45:24.051Z,14.22
2022-10-25T00:48:02.004Z,14.19
2022-10-25T00:50:42.728Z,14.20
2022-10-25T00:53:20.009Z,14.19
2022-10-25T00:55:57.365Z,14.19
2022-10-25T00:58:32.804Z,14.19
2022-10-25T01:01:08.461Z,14.19
2022-10-25T01:03:41.187Z,14.20
2022-10-25T01:06:19.256Z,14.19
2022-10-25T01:08:53.233Z,14.20
2022-10-25T01:11:25.501Z,14.21
2022-10-25T01:13:59.040Z,14.20
2022-10-25T01:16:39.910Z,14.18
2022-10-25T01:19:35.338Z,14.17
2022-10-25T01:22:11.197Z,14.14
2022-10-25T01:24:57.894Z,14.12
2022-10-25T01:27:58.749Z,14.08
2022-10-25T01:30:49.847Z,14.07
2022-10-25T01:33:26.812Z,14.06
2022-10-25T01:36:06.429Z,14.06
2022-10-25T01:38:48.167Z,14.03
2022-10-25T01:41:29.555Z,14.01
2022-10-25T01:44:11.344Z,14.02
2022-10-25T01:46:53.137Z,14.03
2022-10-25T01:49:30.100Z,14.03
2022-10-25T01:52:03.190Z,14.01
2022-10-25T01:54:35.518Z,14.00
2022-10-25T01:57:31.106Z,14.00
2022-10-25T02:00:11.435Z,13.99
2022-10-25T02:02:58.675Z,13.96
2022-10-25T02:05:37.069Z,13.97
2022-10-25T02:08:20.214Z,14.00
2022-10-25T02:11:02.674Z,14.03
2022-10-25T02:13:40.461Z,14.04
2022-10-25T02:16:15.202Z,14.05
2022-10-25T02:18:50.790Z,14.05
2022-10-25T02:21:25.550Z,14.04
2022-10-25T02:23:59.548Z,14.04
2022-10-25T02:26:32.429Z,14.05
2022-10-25T02:29:08.384Z,14.04
2022-10-25T02:31:40.910Z,14.03
2022-10-25T02:34:13.174Z,14.01
2022-10-25T02:36:49.075Z,14.02
2022-10-25T02:39:26.418Z,14.01
2022-10-25T02:42:02.647Z,13.99
2022-10-25T02:44:35.001Z,13.96
2022-10-25T02:47:07.187Z,13.92
2022-10-25T02:49:39.908Z,13.94
2022-10-25T02:52:12.054Z,13.92
2022-10-25T02:54:44.225Z,13.90
2022-10-25T02:57:16.373Z,13.86
2022-10-25T02:59:48.629Z,13.84
2022-10-25T03:02:20.814Z,13.83
2022-10-25T03:04:53.076Z,13.82
2022-10-25T03:07:25.693Z,13.80
2022-10-25T03:09:57.820Z,13.74
2022-10-25T03:12:29.922Z,13.68
2022-10-25T03:15:02.013Z,13.69
2022-10-25T03:17:34.125Z,13.67
2022-10-25T03:20:07.345Z,13.67
2022-10-25T03:22:39.639Z,13.65
2022-10-25T03:25:12.412Z,13.64
2022-10-25T03:27:44.807Z,13.65
2022-10-25T03:30:18.068Z,13.64
2022-10-25T03:32:50.190Z,13.64
2022-10-25T03:35:22.473Z,13.63
2022-10-25T03:37:55.937Z,13.62
2022-10-25T03:40:28.236Z,13.61
2022-10-25T03:43:00.539Z,13.57
2022-10-25T03:45:32.831Z,13.55
2022-10-25T03:48:05.196Z,13.52
2022-10-25T03:50:37.335Z,13.51
2022-10-25T03:53:10.883Z,13.50
2022-10-25T03:55:43.001Z,13.48
2022-10-25T03:58:15.183Z,13.47
2022-10-25T04:00:47.365Z,13.46
2022-10-25T04:03:19.574Z,13.44
2022-10-25T04:05:51.881Z,13.43
2022-10-25T04:08:24.016Z,13.44
2022-10-25T04:10:56.340Z,13.44
2022-10-25T04:13:28.582Z,13.43
2022-10-25T04:16:01.101Z,13.42
2022-10-25T04:18:33.268Z,13.41
2022-10-25T04:21:05.577Z,13.40
2022-10-25T04:23:37.797Z,13.39
2022-10-25T04:26:10.052Z,13.40
2022-10-25T04:28:42.137Z,13.39
2022-10-25T04:31:14.348Z,13.39
2022-10-25T04:33:49.260Z,13.38
2022-10-25T04:36:22.286Z,13.36
2022-10-25T04:38:54.816Z,13.36
2022-10-25T04:41:27.111Z,13.35
2022-10-25T04:43:59.276Z,13.34
2022-10-25T04:46:31.785Z,13.34
2022-10-25T04:49:03.929Z,13.35
2022-10-25T04:51:36.919Z,13.36
2022-10-25T04:54:09.373Z,13.35
2022-10-25T04:56:41.952Z,13.35
2022-10-25T04:59:14.428Z,13.34
2022-10-25T05:01:46.638Z,13.34
2022-10-25T05:04:21.690Z,13.32
2022-10-25T05:06:53.946Z,13.33
2022-10-25T05:09:27.252Z,13.30
2022-10-25T05:11:59.517Z,13.33
2022-10-25T05:14:31.904Z,13.34
2022-10-25T05:17:04.196Z,13.34
2022-10-25T05:19:36.479Z,13.38
2022-10-25T05:22:08.813Z,13.39
2022-10-25T05:24:41.117Z,13.41
2022-10-25T05:27:13.608Z,13.44
2022-10-25T05:29:45.813Z,13.45
2022-10-25T05:32:18.196Z,13.47
2022-10-25T05:34:50.501Z,13.51
2022-10-25T05:37:22.837Z,13.58
2022-10-25T05:39:55.126Z,13.68
2022-10-25T05:42:28.600Z,13.81
2022-10-25T05:45:00.863Z,13.97
2022-10-25T05:47:33.199Z,14.11
2022-10-25T05:50:05.874Z,14.23
2022-10-25T05:52:38.217Z,14.37
2022-10-25T05:55:11.968Z,14.54
2022-10-25T05:57:44.144Z,14.73
2022-10-25T06:00:17.949Z,14.90
2022-10-25T06:02:50.678Z,15.11
2022-10-25T06:05:23.181Z,15.31
2022-10-25T06:07:55.652Z,15.47
2022-10-25T06:10:28.036Z,15.66
2022-10-25T06:13:02.725Z,15.87
2022-10-25T06:15:35.249Z,16.01
2022-10-25T06:18:07.536Z,16.24
2022-10-25T06:23:13.118Z,16.81
2022-10-25T06:25:45.451Z,17.00
2022-10-25T06:28:18.191Z,17.05
2022-10-25T06:30:50.382Z,17.13
2022-10-25T06:33:25.730Z,17.21
2022-10-25T06:36:01.801Z,17.29
2022-10-25T06:38:34.719Z,17.37
2022-10-25T06:41:08.628Z,17.45
2022-10-25T06:43:40.951Z,17.52
2022-10-25T06:46:18.184Z,17.58
2022-10-25T06:48:51.074Z,17.67
2022-10-25T06:51:24.811Z,17.77
2022-10-25T06:54:01.402Z,17.90
2022-10-25T06:56:35.248Z,18.05
2022-10-25T06:59:09.715Z,18.18
2022-10-25T07:01:43.454Z,18.33
2022-10-25T07:04:16.225Z,18.34
2022-10-25T07:06:51.360Z,18.25
2022-10-25T07:09:28.741Z,18.21
2022-10-25T07:12:01.142Z,18.27
2022-10-25T07:14:33.691Z,18.39
2022-10-25T07:17:06.088Z,18.53
2022-10-25T07:19:40.819Z,18.64
2022-10-25T07:22:13.228Z,18.82
2022-10-25T07:24:45.984Z,18.96
2022-10-25T07:27:20.757Z,18.96
2022-10-25T07:29:53.185Z,19.02
2022-10-25T07:32:28.320Z,19.14
2022-10-25T07:35:01.341Z,19.27
2022-10-25T07:37:33.787Z,19.32
2022-10-25T07:40:07.004Z,19.39
2022-10-25T07:42:39.468Z,19.56
2022-10-25T07:45:12.989Z,19.74
2022-10-25T07:47:46.046Z,19.98
2022-10-25T07:50:19.705Z,20.20
2022-10-25T07:52:55.350Z,20.44
2022-10-25T07:55:28.382Z,20.65
2022-10-25T07:58:08.258Z,20.73
2022-10-25T08:00:41.080Z,20.97
2022-10-25T08:03:13.938Z,21.25
2022-10-25T08:05:49.112Z,21.49
2022-10-25T08:08:23.546Z,21.66
2022-10-25T08:10:56.154Z,21.66
2022-10-25T08:13:28.748Z,21.59
2022-10-25T08:16:01.291Z,21.66
2022-10-25T08:18:34.328Z,21.82
2022-10-25T08:21:07.840Z,21.89
2022-10-25T08:23:40.469Z,22.03
2022-10-25T08:26:13.133Z,22.07
2022-10-25T08:28:45.609Z,22.13
2022-10-25T08:31:18.040Z,22.28
2022-10-25T08:33:50.502Z,22.40
2022-10-25T08:36:24.356Z,22.51
2022-10-25T08:38:57.530Z,22.54
2022-10-25T08:41:46.606Z,22.77
2022-10-25T08:44:30.667Z,22.96
2022-10-25T08:47:08.888Z,23.14
2022-10-25T08:49:54.792Z,23.23
2022-10-25T08:52:28.475Z,23.25
2022-10-25T08:55:05.601Z,23.27
2022-10-25T08:57:46.950Z,23.39
2022-10-25T09:00:24.068Z,23.43
2022-10-25T09:03:01.017Z,23.39
2022-10-25T09:05:40.705Z,23.41
2022-10-25T09:08:39.167Z,23.53
2022-10-25T09:11:24.920Z,23.67
2022-10-25T09:14:06.468Z,23.74
2022-10-25T09:16:44.368Z,23.89
2022-10-25T09:19:22.754Z,24.04
2022-10-25T09:21:58.780Z,24.06
2022-10-25T09:24:35.186Z,24.00
2022-10-25T09:27:15.598Z,24.02
2022-10-25T09:29:52.229Z,24.17
2022-10-25T09:32:30.997Z,24.39
2022-10-25T09:35:05.258Z,24.42
2022-10-25T09:37:42.290Z,24.60
2022-10-25T09:40:20.348Z,24.80
2022-10-25T09:42:57.392Z,24.94
2022-10-25T09:45:33.526Z,25.05
2022-10-25T09:48:11.626Z,25.14
2022-10-25T09:50:49.148Z,25.17
2022-10-25T09:53:23.984Z,25.19
2022-10-25T09:55:56.340Z,25.26
2022-10-25T09:58:31.774Z,25.40
2022-10-25T10:01:09.940Z,25.42
2022-10-25T10:03:44.588Z,25.25
2022-10-25T10:06:25.230Z,25.11
2022-10-25T10:09:01.932Z,24.99
2022-10-25T10:11:35.971Z,24.90
2022-10-25T10:14:13.733Z,24.83
2022-10-25T10:16:49.356Z,24.74
2022-10-25T10:19:23.653Z,24.60
2022-10-25T10:21:58.548Z,24.42
2022-10-25T10:24:33.312Z,24.36
2022-10-25T10:27:10.153Z,24.25
2022-10-25T10:30:01.156Z,24.24
2022-10-25T10:32:36.659Z,24.20
2022-10-25T10:35:27.011Z,24.18
2022-10-25T10:38:26.544Z,24.21
2022-10-25T10:41:16.380Z,24.24
2022-10-25T10:43:48.635Z,24.24
2022-10-25T10:46:24.846Z,24.16
2022-10-25T10:48:59.212Z,24.15
2022-10-25T10:51:44.315Z,24.11
2022-10-25T10:54:27.538Z,24.07
2022-10-25T10:57:05.571Z,24.03
2022-10-25T10:59:47.048Z,23.95
2022-10-25T11:02:40.556Z,23.86
2022-10-25T11:05:28.872Z,23.84
2022-10-25T11:08:03.213Z,23.84
2022-10-25T11:10:37.446Z,23.83
2022-10-25T11:13:18.100Z,23.81
2022-10-25T11:16:20.997Z,23.77
2022-10-25T11:19:13.321Z,23.68
2022-10-25T11:22:00.342Z,23.73
2022-10-25T11:24:45.825Z,23.76
2022-10-25T11:27:33.061Z,23.78
2022-10-25T11:30:14.348Z,23.80
2022-10-25T11:33:07.904Z,23.84
2022-10-25T11:35:50.282Z,23.83
2022-10-25T11:38:31.678Z,23.81
2022-10-25T11:41:15.673Z,23.78
2022-10-25T11:44:04.070Z,23.76
2022-10-25T11:46:50.669Z,23.78
2022-10-25T11:49:35.461Z,23.83
2022-10-25T11:52:25.682Z,23.85
2022-10-25T11:55:10.502Z,23.86
2022-10-25T11:57:52.484Z,23.86
2022-10-25T12:00:33.096Z,23.85
2022-10-25T12:03:20.218Z,23.86
2022-10-25T12:06:01.576Z,23.85
2022-10-25T12:08:47.209Z,23.79
2022-10-25T12:11:22.786Z,23.74
2022-10-25T12:13:59.935Z,23.70
2022-10-25T12:16:33.751Z,23.67
2022-10-25T12:19:15.404Z,23.66
2022-10-25T12:21:51.749Z,23.66
2022-10-25T12:24:27.809Z,23.66
2022-10-25T12:27:00.358Z,23.66
2022-10-25T12:29:38.672Z,23.66
2022-10-25T12:32:18.833Z,23.65
2022-10-25T12:34:54.401Z,23.65
2022-10-25T12:37:33.528Z,23.64
2022-10-25T12:40:07.676Z,23.65
2022-10-25T12:42:46.279Z,23.65
2022-10-25T12:45:48.944Z,23.64
2022-10-25T12:48:42.709Z,23.65
2022-10-25T12:51:28.482Z,23.63
2022-10-25T12:54:30.281Z,23.58
2022-10-25T12:57:14.953Z,23.54
2022-10-25T13:00:01.275Z,23.52
2022-10-25T13:03:07.506Z,23.53
2022-10-25T13:06:11.111Z,23.52
2022-10-25T13:08:44.486Z,23.51
2022-10-25T13:11:16.955Z,23.51
2022-10-25T13:13:54.856Z,23.47
2022-10-25T13:16:29.650Z,23.51
2022-10-25T13:19:54.128Z,23.52
2022-10-25T13:22:39.234Z,23.52
2022-10-25T13:25:40.767Z,23.53
2022-10-25T13:28:35.988Z,23.53
2022-10-25T13:31:47.645Z,23.51
2022-10-25T13:34:34.643Z,23.51
2022-10-25T13:37:31.081Z,23.48
2022-10-25T13:40:07.260Z,23.50
2022-10-25T13:42:40.088Z,23.51
2022-10-25T13:45:30.016Z,23.54
2022-10-25T13:48:25.945Z,23.56
2022-10-25T13:51:02.475Z,23.56
2022-10-25T13:53:40.793Z,23.56
2022-10-25T13:56:33.669Z,23.57
2022-10-25T13:59:26.713Z,23.56
2022-10-25T14:02:16.927Z,23.54
2022-10-25T14:04:49.327Z,23.53
2022-10-25T14:07:46.965Z,23.52
2022-10-25T14:10:37.026Z,23.51
2022-10-25T14:13:20.846Z,23.49
2022-10-25T14:15:59.335Z,23.47
2022-10-25T14:18:35.890Z,23.45
2022-10-25T14:21:09.956Z,23.43
2022-10-25T14:23:43.538Z,23.40
2022-10-25T14:26:20.063Z,23.39
2022-10-25T14:28:52.934Z,23.37
2022-10-25T14:31:25.207Z,23.34
2022-10-25T14:33:58.130Z,23.32
2022-10-25T14:36:32.797Z,23.30
2022-10-25T14:39:16.875Z,23.28
2022-10-25T14:41:56.208Z,23.25
2022-10-25T14:44:30.700Z,23.23
2022-10-25T14:47:03.235Z,23.22
2022-10-25T14:49:35.357Z,23.20
2022-10-25T14:52:09.385Z,23.18
2022-10-25T14:54:42.293Z,23.15
2022-10-25T14:57:17.686Z,23.13
2022-10-25T14:59:53.387Z,23.10
2022-10-25T15:02:28.859Z,23.07
2022-10-25T15:05:02.955Z,23.03
2022-10-25T15:07:40.579Z,23.00
2022-10-25T15:10:38.063Z,22.96
2022-10-25T15:13:19.765Z,22.91
2022-10-25T15:15:54.815Z,22.86
2022-10-25T15:18:38.422Z,22.77
2022-10-25T15:21:17.768Z,22.79
2022-10-25T15:24:10.708Z,22.75
2022-10-25T15:26:55.658Z,22.70
2022-10-25T15:32:27.771Z,22.60
2022-10-25T15:35:02.243Z,22.55
2022-10-25T15:37:34.400Z,22.51
2022-10-25T15:40:20.149Z,22.47
2022-10-25T15:42:52.330Z,22.41
2022-10-25T15:45:24.424Z,22.38
2022-10-25T15:47:58.599Z,22.36
2022-10-25T15:50:30.944Z,22.33
2022-10-25T15:53:03.242Z,22.26
2022-10-25T15:55:35.756Z,22.18
2022-10-25T15:58:09.858Z,22.08
2022-10-25T16:00:44.129Z,22.06
2022-10-25T16:03:22.767Z,22.00
2022-10-25T16:05:55.546Z,21.97
2022-10-25T16:08:27.783Z,21.94
2022-10-25T16:11:01.637Z,21.91
2022-10-25T16:13:37.133Z,21.91
2022-10-25T16:16:28.154Z,21.90
2022-10-25T16:19:03.802Z,21.89
2022-10-25T16:21:36.031Z,21.89
2022-10-25T16:24:08.582Z,21.89
2022-10-25T16:26:43.455Z,21.89
2022-10-25T16:29:19.496Z,21.89
2022-10-25T16:31:52.550Z,21.88
2022-10-25T16:34:24.656Z,21.86
2022-10-25T16:36:56.839Z,21.85
2022-10-25T16:39:29.048Z,21.82
2022-10-25T16:42:01.784Z,21.79
2022-10-25T16:44:35.129Z,21.76
2022-10-25T16:47:07.373Z,21.72
2022-10-25T16:49:39.562Z,21.71
2022-10-25T16:52:12.230Z,21.68
2022-10-25T16:54:44.429Z,21.65
2022-10-25T16:57:19.096Z,21.63
2022-10-25T16:59:51.470Z,21.61
2022-10-25T17:02:26.068Z,21.57
2022-10-25T17:04:58.260Z,21.53
2022-10-25T17:07:30.419Z,21.50
2022-10-25T17:10:02.588Z,21.47
2022-10-25T17:12:34.728Z,21.44
2022-10-25T17:15:08.896Z,21.40
2022-10-25T17:17:41.625Z,21.36
2022-10-25T17:20:16.333Z,21.31
2022-10-25T17:22:50.029Z,21.24
2022-10-25T17:25:22.560Z,21.17
2022-10-25T17:27:55.548Z,21.12
2022-10-25T17:30:27.812Z,21.08
2022-10-25T17:32:59.953Z,21.04
2022-10-25T17:35:32.136Z,21.00
2022-10-25T17:38:04.247Z,20.97
2022-10-25T17:40:38.150Z,20.94
2022-10-25T17:43:11.829Z,20.91
2022-10-25T17:45:45.449Z,20.89
2022-10-25T17:48:17.555Z,20.88
2022-10-25T17:50:49.747Z,20.87
2022-10-25T17:53:21.905Z,20.87
2022-10-25T17:55:54.107Z,20.86
2022-10-25T17:58:26.774Z,20.84
2022-10-25T18:01:06.101Z,20.83
2022-10-25T18:03:38.453Z,20.80
2022-10-25T18:06:13.020Z,20.77
2022-10-25T18:08:46.765Z,20.73
2022-10-25T18:11:22.581Z,20.70
2022-10-25T18:13:56.810Z,20.64
2022-10-25T18:16:31.203Z,20.55
2022-10-25T18:19:05.973Z,20.48
2022-10-25T18:21:38.205Z,20.42
2022-10-25T18:24:13.135Z,20.38
2022-10-25T18:26:45.554Z,20.27
2022-10-25T18:29:17.673Z,20.19
2022-10-25T18:35:04.651Z,20.02
2022-10-25T18:37:36.868Z,19.95
2022-10-25T18:40:11.740Z,19.83
2022-10-25T18:42:43.908Z,19.76
2022-10-25T18:45:31.806Z,19.73
2022-10-25T18:48:04.007Z,19.69
2022-10-25T18:50:40.429Z,19.66
2022-10-25T18:53:16.867Z,19.60
2022-10-25T18:55:51.213Z,19.50
2022-10-25T18:58:23.491Z,19.38
2022-10-25T19:00:55.621Z,19.33
2022-10-25T19:03:27.960Z,19.26
2022-10-25T19:06:00.168Z,19.20
2022-10-25T19:08:32.528Z,19.15
2022-10-25T19:11:08.411Z,19.04
2022-10-25T19:13:41.203Z,18.97
2022-10-25T19:16:16.341Z,18.91
2022-10-25T19:18:48.569Z,18.84
2022-10-25T19:21:21.319Z,18.80
2022-10-25T19:23:54.414Z,18.77
2022-10-25T19:26:26.724Z,18.74
2022-10-25T19:29:00.671Z,18.67
2022-10-25T19:31:33.304Z,18.62
2022-10-25T19:34:05.607Z,18.58
2022-10-25T19:36:38.283Z,18.52
2022-10-25T19:39:10.499Z,18.43
2022-10-25T19:41:42.638Z,18.36
2022-10-25T19:44:14.834Z,18.31
2022-10-25T19:46:47.003Z,18.27
2022-10-25T19:49:19.518Z,18.26
2022-10-25T19:51:51.734Z,18.27
2022-10-25T19:54:24.200Z,18.24
2022-10-25T19:56:56.352Z,18.19
2022-10-25T19:59:28.605Z,18.15
2022-10-25T20:02:00.975Z,18.12
2022-10-25T20:04:33.550Z,18.08
2022-10-25T20:07:05.723Z,18.04
2022-10-25T20:09:37.949Z,18.00
2022-10-25T20:12:10.628Z,17.95
2022-10-25T20:14:42.973Z,17.92
2022-10-25T20:17:15.620Z,17.91
2022-10-25T20:19:47.741Z,17.87
2022-10-25T20:22:19.920Z,17.83
2022-10-25T20:24:52.122Z,17.81
2022-10-25T20:27:24.924Z,17.78
2022-10-25T20:29:57.091Z,17.75
2022-10-25T20:32:29.241Z,17.71
2022-10-25T20:35:01.401Z,17.61
2022-10-25T20:37:33.565Z,17.58
2022-10-25T20:40:06.429Z,17.56
2022-10-25T20:42:38.657Z,17.52
2022-10-25T20:45:11.371Z,17.48
2022-10-25T20:47:44.976Z,17.46
2022-10-25T20:50:17.496Z,17.41
2022-10-25T20:53:09.170Z,17.31
2022-10-25T20:55:41.868Z,17.25
2022-10-25T20:58:14.195Z,17.22
2022-10-25T21:00:46.736Z,17.20
2022-10-25T21:03:19.068Z,17.18
2022-10-25T21:05:53.088Z,17.17
2022-10-25T21:08:25.459Z,17.13
2022-10-25T21:10:59.985Z,17.12
2022-10-25T21:13:34.429Z,17.12
2022-10-25T21:16:11.039Z,17.12
2022-10-25T21:18:44.198Z,17.12
2022-10-25T21:21:20.656Z,17.13
2022-10-25T21:23:57.808Z,17.14
2022-10-25T21:26:29.945Z,17.13
2022-10-25T21:29:02.077Z,17.13
2022-10-25T21:31:34.256Z,17.12
2022-10-25T21:34:06.484Z,17.14
2022-10-25T21:36:38.753Z,17.16
2022-10-25T21:39:10.912Z,17.16
2022-10-25T21:41:43.069Z,17.18
2022-10-25T21:44:15.250Z,17.19
2022-10-25T21:46:48.003Z,17.19
2022-10-25T21:49:20.131Z,17.18
2022-10-25T21:51:52.414Z,17.17
2022-10-25T21:54:25.014Z,17.16
2022-10-25T21:56:57.666Z,17.14
2022-10-25T21:59:29.940Z,17.12
2022-10-25T22:02:03.073Z,17.12
2022-10-25T22:04:35.385Z,17.10
2022-10-25T22:07:07.591Z,17.05
2022-10-25T22:09:39.789Z,17.02
2022-10-25T22:12:12.250Z,17.01
2022-10-25T22:14:44.405Z,16.98
2022-10-25T22:17:17.648Z,16.98
2022-10-25T22:19:49.912Z,16.96
2022-10-25T22:22:22.215Z,16.94
2022-10-25T22:24:54.375Z,16.92
2022-10-25T22:27:26.690Z,16.89
2022-10-25T22:29:59.008Z,16.85
2022-10-25T22:32:31.272Z,16.81
2022-10-25T22:35:03.462Z,16.76
2022-10-25T22:37:35.659Z,16.71
2022-10-25T22:40:09.519Z,16.66
2022-10-25T22:42:41.703Z,16.61
2022-10-25T22:45:14.052Z,16.59
2022-10-25T22:47:46.525Z,16.61
2022-10-25T22:50:19.067Z,16.62
2022-10-25T22:52:51.260Z,16.62
2022-10-25T22:55:23.489Z,16.62
2022-10-25T22:57:56.090Z,16.59
2022-10-25T23:00:28.279Z,16.57
2022-10-25T23:03:00.560Z,16.55
2022-10-25T23:05:32.939Z,16.53
2022-10-25T23:08:05.267Z,16.49
2022-10-25T23:10:37.421Z,16.42
2022-10-25T23:13:09.548Z,16.32
2022-10-25T23:15:41.868Z,16.24
2022-10-25T23:18:14.016Z,16.20
2022-10-25T23:20:53.311Z,16.19
2022-10-25T23:23:26.615Z,16.18
2022-10-25T23:26:02.255Z,16.16
2022-10-25T23:28:33.443Z,16.13
2022-10-25T23:31:10.562Z,16.09
2022-10-25T23:33:44.087Z,16.04
2022-10-25T23:36:17.924Z,15.99
2022-10-25T23:38:50.788Z,15.96
2022-10-25T23:41:23.953Z,15.94
2022-10-25T23:43:56.137Z,15.91
2022-10-25T23:46:28.500Z,15.89
2022-10-25T23:49:00.903Z,15.88
2022-10-25T23:51:33.076Z,15.87
2022-10-25T23:54:05.860Z,15.86
2022-10-25T23:56:38.531Z,15.85
2022-10-25T23:59:11.033Z,15.86
